sensor_id;sensor_type;location;lat;lon;timestamp;P1;durP1;ratioP1;P2;durP2;ratioP2
59300;SDS011;45073;52.740;6.784;2022-11-20T00:00:01;13.02;;;6.25;;
59300;SDS011;45073;52.740;6.784;2022-11-20T00:02:27;11.27;;;5.40;;
59300;SDS011;45073;52.740;6.784;2022-11-20T00:04:53;13.93;;;7.32;;
59300;SDS011;45073;52.740;6.784;2022-11-20T00:07:18;26.23;;;7.00;;
59300;SDS011;45073;52.740;6.784;2022-11-20T00:09:44;14.15;;;6.07;;
59300;SDS011;45073;52.740;6.784;2022-11-20T00:12:09;13.52;;;6.95;;
59300;SDS011;45073;52.740;6.784;2022-11-20T00:14:35;13.80;;;7.57;;
59300;SDS011;45073;52.740;6.784;2022-11-20T00:17:00;13.75;;;6.45;;
59300;SDS011;45073;52.740;6.784;2022-11-20T00:19:26;11.90;;;6.10;;
59300;SDS011;45073;52.740;6.784;2022-11-20T00:21:52;13.45;;;6.95;;
59300;SDS011;45073;52.740;6.784;2022-11-20T00:24:18;13.80;;;7.13;;
59300;SDS011;45073;52.740;6.784;2022-11-20T00:26:44;14.25;;;6.80;;
59300;SDS011;45073;52.740;6.784;2022-11-20T00:29:10;15.50;;;7.95;;
59300;SDS011;45073;52.740;6.784;2022-11-20T00:31:35;18.90;;;8.35;;
59300;SDS011;45073;52.740;6.784;2022-11-20T00:34:01;12.68;;;5.80;;
59300;SDS011;45073;52.740;6.784;2022-11-20T00:36:27;11.80;;;5.05;;
59300;SDS011;45073;52.740;6.784;2022-11-20T00:38:54;12.45;;;5.45;;
59300;SDS011;45073;52.740;6.784;2022-11-20T00:41:21;11.20;;;4.72;;
59300;SDS011;45073;52.740;6.784;2022-11-20T00:43:48;14.35;;;6.10;;
59300;SDS011;45073;52.740;6.784;2022-11-20T00:46:14;14.23;;;6.25;;
59300;SDS011;45073;52.740;6.784;2022-11-20T00:48:42;15.68;;;7.38;;
59300;SDS011;45073;52.740;6.784;2022-11-20T00:51:09;14.30;;;6.03;;
59300;SDS011;45073;52.740;6.784;2022-11-20T00:53:37;12.75;;;5.50;;
59300;SDS011;45073;52.740;6.784;2022-11-20T00:56:03;12.45;;;5.35;;
59300;SDS011;45073;52.740;6.784;2022-11-20T00:58:31;13.73;;;6.80;;
59300;SDS011;45073;52.740;6.784;2022-11-20T01:01:03;13.95;;;6.88;;
59300;SDS011;45073;52.740;6.784;2022-11-20T01:03:34;14.18;;;6.82;;
59300;SDS011;45073;52.740;6.784;2022-11-20T01:06:02;13.18;;;6.60;;
59300;SDS011;45073;52.740;6.784;2022-11-20T01:08:29;13.55;;;7.15;;
59300;SDS011;45073;52.740;6.784;2022-11-20T01:11:04;14.52;;;6.90;;
59300;SDS011;45073;52.740;6.784;2022-11-20T01:13:35;17.00;;;6.25;;
59300;SDS011;45073;52.740;6.784;2022-11-20T01:18:38;15.70;;;6.13;;
59300;SDS011;45073;52.740;6.784;2022-11-20T01:21:06;15.02;;;7.30;;
59300;SDS011;45073;52.740;6.784;2022-11-20T01:23:37;15.38;;;6.85;;
59300;SDS011;45073;52.740;6.784;2022-11-20T01:26:04;13.77;;;6.88;;
59300;SDS011;45073;52.740;6.784;2022-11-20T01:28:32;14.55;;;6.53;;
59300;SDS011;45073;52.740;6.784;2022-11-20T01:30:58;16.25;;;7.60;;
59300;SDS011;45073;52.740;6.784;2022-11-20T01:33:24;16.95;;;7.97;;
59300;SDS011;45073;52.740;6.784;2022-11-20T01:35:50;14.02;;;7.35;;
59300;SDS011;45073;52.740;6.784;2022-11-20T01:38:16;17.52;;;8.00;;
59300;SDS011;45073;52.740;6.784;2022-11-20T01:40:42;16.05;;;7.75;;
59300;SDS011;45073;52.740;6.784;2022-11-20T01:43:17;13.95;;;6.75;;
59300;SDS011;45073;52.740;6.784;2022-11-20T01:46:03;15.57;;;7.32;;
59300;SDS011;45073;52.740;6.784;2022-11-20T01:48:30;14.05;;;8.48;;
59300;SDS011;45073;52.740;6.784;2022-11-20T01:51:00;13.57;;;6.63;;
59300;SDS011;45073;52.740;6.784;2022-11-20T01:53:28;15.25;;;8.35;;
59300;SDS011;45073;52.740;6.784;2022-11-20T01:55:59;15.15;;;7.07;;
59300;SDS011;45073;52.740;6.784;2022-11-20T01:58:28;13.25;;;7.25;;
59300;SDS011;45073;52.740;6.784;2022-11-20T02:00:58;14.95;;;7.32;;
59300;SDS011;45073;52.740;6.784;2022-11-20T02:03:24;13.50;;;7.22;;
59300;SDS011;45073;52.740;6.784;2022-11-20T02:08:38;13.45;;;7.32;;
59300;SDS011;45073;52.740;6.784;2022-11-20T02:11:04;12.68;;;6.25;;
59300;SDS011;45073;52.740;6.784;2022-11-20T02:13:29;15.73;;;7.53;;
59300;SDS011;45073;52.740;6.784;2022-11-20T02:16:14;15.88;;;7.47;;
59300;SDS011;45073;52.740;6.784;2022-11-20T02:21:33;14.02;;;7.28;;
59300;SDS011;45073;52.740;6.784;2022-11-20T02:24:22;14.93;;;5.95;;
59300;SDS011;45073;52.740;6.784;2022-11-20T02:26:55;14.48;;;6.80;;
59300;SDS011;45073;52.740;6.784;2022-11-20T02:32:18;14.63;;;6.32;;
59300;SDS011;45073;52.740;6.784;2022-11-20T02:34:44;17.90;;;7.32;;
59300;SDS011;45073;52.740;6.784;2022-11-20T02:37:09;14.15;;;6.80;;
59300;SDS011;45073;52.740;6.784;2022-11-20T02:39:35;12.98;;;7.43;;
59300;SDS011;45073;52.740;6.784;2022-11-20T02:42:01;15.48;;;7.53;;
59300;SDS011;45073;52.740;6.784;2022-11-20T02:44:27;16.30;;;7.95;;
59300;SDS011;45073;52.740;6.784;2022-11-20T02:46:52;15.65;;;7.20;;
59300;SDS011;45073;52.740;6.784;2022-11-20T02:49:18;16.25;;;8.07;;
59300;SDS011;45073;52.740;6.784;2022-11-20T02:51:44;14.35;;;7.28;;
59300;SDS011;45073;52.740;6.784;2022-11-20T02:54:09;14.15;;;6.90;;
59300;SDS011;45073;52.740;6.784;2022-11-20T02:56:37;17.58;;;7.38;;
59300;SDS011;45073;52.740;6.784;2022-11-20T02:59:03;14.93;;;7.47;;
59300;SDS011;45073;52.740;6.784;2022-11-20T03:01:29;15.90;;;8.20;;
59300;SDS011;45073;52.740;6.784;2022-11-20T03:03:55;15.70;;;7.70;;
59300;SDS011;45073;52.740;6.784;2022-11-20T03:06:21;12.65;;;6.78;;
59300;SDS011;45073;52.740;6.784;2022-11-20T03:08:46;13.95;;;7.03;;
59300;SDS011;45073;52.740;6.784;2022-11-20T03:11:12;17.13;;;7.68;;
59300;SDS011;45073;52.740;6.784;2022-11-20T03:13:37;15.45;;;6.50;;
59300;SDS011;45073;52.740;6.784;2022-11-20T03:16:10;17.10;;;8.45;;
59300;SDS011;45073;52.740;6.784;2022-11-20T03:18:41;14.48;;;6.95;;
59300;SDS011;45073;52.740;6.784;2022-11-20T03:21:08;14.43;;;7.07;;
59300;SDS011;45073;52.740;6.784;2022-11-20T03:23:34;15.48;;;7.38;;
59300;SDS011;45073;52.740;6.784;2022-11-20T03:26:34;14.30;;;7.10;;
59300;SDS011;45073;52.740;6.784;2022-11-20T03:28:57;14.45;;;7.68;;
59300;SDS011;45073;52.740;6.784;2022-11-20T03:31:24;16.33;;;7.25;;
59300;SDS011;45073;52.740;6.784;2022-11-20T03:33:52;15.48;;;7.40;;
59300;SDS011;45073;52.740;6.784;2022-11-20T03:36:18;16.75;;;7.30;;
59300;SDS011;45073;52.740;6.784;2022-11-20T03:38:45;13.85;;;7.05;;
59300;SDS011;45073;52.740;6.784;2022-11-20T03:41:14;14.60;;;7.47;;
59300;SDS011;45073;52.740;6.784;2022-11-20T03:43:48;12.38;;;6.28;;
59300;SDS011;45073;52.740;6.784;2022-11-20T03:46:14;15.75;;;7.20;;
59300;SDS011;45073;52.740;6.784;2022-11-20T03:48:39;13.40;;;7.15;;
59300;SDS011;45073;52.740;6.784;2022-11-20T03:53:38;14.57;;;6.53;;
59300;SDS011;45073;52.740;6.784;2022-11-20T03:56:05;14.80;;;7.57;;
59300;SDS011;45073;52.740;6.784;2022-11-20T03:58:32;12.15;;;6.80;;
59300;SDS011;45073;52.740;6.784;2022-11-20T04:01:03;14.50;;;7.38;;
59300;SDS011;45073;52.740;6.784;2022-11-20T04:03:34;16.00;;;7.82;;
59300;SDS011;45073;52.740;6.784;2022-11-20T04:06:01;13.23;;;7.50;;
59300;SDS011;45073;52.740;6.784;2022-11-20T04:08:28;16.58;;;7.78;;
59300;SDS011;45073;52.740;6.784;2022-11-20T04:10:55;16.38;;;8.27;;
59300;SDS011;45073;52.740;6.784;2022-11-20T04:13:20;16.00;;;7.80;;
59300;SDS011;45073;52.740;6.784;2022-11-20T04:15:46;15.73;;;8.93;;
59300;SDS011;45073;52.740;6.784;2022-11-20T04:18:11;14.10;;;7.20;;
59300;SDS011;45073;52.740;6.784;2022-11-20T04:20:37;14.50;;;8.00;;
59300;SDS011;45073;52.740;6.784;2022-11-20T04:23:02;19.02;;;7.20;;
59300;SDS011;45073;52.740;6.784;2022-11-20T04:25:28;16.38;;;7.88;;
59300;SDS011;45073;52.740;6.784;2022-11-20T04:27:53;15.45;;;7.65;;
59300;SDS011;45073;52.740;6.784;2022-11-20T04:30:19;13.48;;;7.07;;
59300;SDS011;45073;52.740;6.784;2022-11-20T04:32:45;17.38;;;8.52;;
59300;SDS011;45073;52.740;6.784;2022-11-20T04:35:10;15.90;;;7.80;;
59300;SDS011;45073;52.740;6.784;2022-11-20T04:37:36;14.55;;;7.35;;
59300;SDS011;45073;52.740;6.784;2022-11-20T04:40:01;15.40;;;8.00;;
59300;SDS011;45073;52.740;6.784;2022-11-20T04:42:27;15.23;;;7.10;;
59300;SDS011;45073;52.740;6.784;2022-11-20T04:44:53;14.80;;;7.35;;
59300;SDS011;45073;52.740;6.784;2022-11-20T04:47:18;14.05;;;7.60;;
59300;SDS011;45073;52.740;6.784;2022-11-20T04:49:44;15.35;;;7.80;;
59300;SDS011;45073;52.740;6.784;2022-11-20T04:52:09;16.75;;;8.30;;
59300;SDS011;45073;52.740;6.784;2022-11-20T04:54:35;15.30;;;7.72;;
59300;SDS011;45073;52.740;6.784;2022-11-20T04:57:01;15.60;;;7.43;;
59300;SDS011;45073;52.740;6.784;2022-11-20T04:59:26;15.65;;;7.53;;
59300;SDS011;45073;52.740;6.784;2022-11-20T05:01:52;15.13;;;7.68;;
59300;SDS011;45073;52.740;6.784;2022-11-20T05:04:17;14.73;;;7.35;;
59300;SDS011;45073;52.740;6.784;2022-11-20T05:06:43;13.27;;;6.97;;
59300;SDS011;45073;52.740;6.784;2022-11-20T05:09:10;14.07;;;7.07;;
59300;SDS011;45073;52.740;6.784;2022-11-20T05:11:36;13.02;;;7.78;;
59300;SDS011;45073;52.740;6.784;2022-11-20T05:14:02;16.63;;;7.65;;
59300;SDS011;45073;52.740;6.784;2022-11-20T05:16:27;15.93;;;7.47;;
59300;SDS011;45073;52.740;6.784;2022-11-20T05:18:53;13.15;;;6.95;;
59300;SDS011;45073;52.740;6.784;2022-11-20T05:21:19;16.98;;;7.85;;
59300;SDS011;45073;52.740;6.784;2022-11-20T05:23:45;16.17;;;7.82;;
59300;SDS011;45073;52.740;6.784;2022-11-20T05:26:15;16.45;;;8.32;;
59300;SDS011;45073;52.740;6.784;2022-11-20T05:28:43;15.35;;;7.97;;
59300;SDS011;45073;52.740;6.784;2022-11-20T05:31:09;13.90;;;7.45;;
59300;SDS011;45073;52.740;6.784;2022-11-20T05:33:40;15.88;;;8.57;;
59300;SDS011;45073;52.740;6.784;2022-11-20T05:36:07;17.75;;;9.18;;
59300;SDS011;45073;52.740;6.784;2022-11-20T05:38:33;14.30;;;6.88;;
59300;SDS011;45073;52.740;6.784;2022-11-20T05:43:32;17.10;;;7.13;;
59300;SDS011;45073;52.740;6.784;2022-11-20T05:45:58;15.43;;;8.23;;
59300;SDS011;45073;52.740;6.784;2022-11-20T05:48:24;17.42;;;8.90;;
59300;SDS011;45073;52.740;6.784;2022-11-20T05:50:50;16.70;;;9.35;;
59300;SDS011;45073;52.740;6.784;2022-11-20T05:53:15;15.65;;;7.35;;
59300;SDS011;45073;52.740;6.784;2022-11-20T05:55:41;16.40;;;7.57;;
59300;SDS011;45073;52.740;6.784;2022-11-20T05:58:06;16.88;;;9.07;;
59300;SDS011;45073;52.740;6.784;2022-11-20T06:00:32;17.70;;;9.07;;
59300;SDS011;45073;52.740;6.784;2022-11-20T06:02:58;18.67;;;9.05;;
59300;SDS011;45073;52.740;6.784;2022-11-20T06:05:23;15.82;;;7.95;;
59300;SDS011;45073;52.740;6.784;2022-11-20T06:07:49;14.88;;;7.72;;
59300;SDS011;45073;52.740;6.784;2022-11-20T06:10:14;16.50;;;7.93;;
59300;SDS011;45073;52.740;6.784;2022-11-20T06:12:40;17.23;;;8.65;;
59300;SDS011;45073;52.740;6.784;2022-11-20T06:15:05;16.48;;;8.50;;
59300;SDS011;45073;52.740;6.784;2022-11-20T06:17:31;14.82;;;7.80;;
59300;SDS011;45073;52.740;6.784;2022-11-20T06:19:57;14.23;;;6.90;;
59300;SDS011;45073;52.740;6.784;2022-11-20T06:22:22;15.52;;;8.77;;
59300;SDS011;45073;52.740;6.784;2022-11-20T06:24:48;16.67;;;8.40;;
59300;SDS011;45073;52.740;6.784;2022-11-20T06:27:13;16.88;;;8.00;;
59300;SDS011;45073;52.740;6.784;2022-11-20T06:29:39;17.10;;;7.93;;
59300;SDS011;45073;52.740;6.784;2022-11-20T06:32:04;16.20;;;8.65;;
59300;SDS011;45073;52.740;6.784;2022-11-20T06:34:30;14.48;;;8.05;;
59300;SDS011;45073;52.740;6.784;2022-11-20T06:36:55;14.68;;;7.47;;
59300;SDS011;45073;52.740;6.784;2022-11-20T06:39:21;16.15;;;8.02;;
59300;SDS011;45073;52.740;6.784;2022-11-20T06:41:46;19.90;;;9.10;;
59300;SDS011;45073;52.740;6.784;2022-11-20T06:44:12;16.48;;;8.27;;
59300;SDS011;45073;52.740;6.784;2022-11-20T06:46:38;15.73;;;8.20;;
59300;SDS011;45073;52.740;6.784;2022-11-20T06:49:03;17.23;;;7.78;;
59300;SDS011;45073;52.740;6.784;2022-11-20T06:51:29;19.42;;;9.48;;
59300;SDS011;45073;52.740;6.784;2022-11-20T06:53:54;15.25;;;8.25;;
59300;SDS011;45073;52.740;6.784;2022-11-20T06:56:20;15.93;;;7.78;;
59300;SDS011;45073;52.740;6.784;2022-11-20T06:58:46;15.73;;;7.63;;
59300;SDS011;45073;52.740;6.784;2022-11-20T07:01:13;13.27;;;7.55;;
59300;SDS011;45073;52.740;6.784;2022-11-20T07:03:39;14.07;;;7.22;;
59300;SDS011;45073;52.740;6.784;2022-11-20T07:06:06;15.52;;;8.27;;
59300;SDS011;45073;52.740;6.784;2022-11-20T07:08:33;15.45;;;7.60;;
59300;SDS011;45073;52.740;6.784;2022-11-20T07:10:59;14.68;;;7.68;;
59300;SDS011;45073;52.740;6.784;2022-11-20T07:13:26;14.68;;;7.85;;
59300;SDS011;45073;52.740;6.784;2022-11-20T07:15:53;16.48;;;7.82;;
59300;SDS011;45073;52.740;6.784;2022-11-20T07:18:19;16.65;;;8.05;;
59300;SDS011;45073;52.740;6.784;2022-11-20T07:20:45;18.67;;;8.25;;
59300;SDS011;45073;52.740;6.784;2022-11-20T07:23:10;17.30;;;7.97;;
59300;SDS011;45073;52.740;6.784;2022-11-20T07:25:36;17.98;;;8.48;;
59300;SDS011;45073;52.740;6.784;2022-11-20T07:28:01;14.80;;;8.57;;
59300;SDS011;45073;52.740;6.784;2022-11-20T07:30:27;15.55;;;8.13;;
59300;SDS011;45073;52.740;6.784;2022-11-20T07:32:54;15.43;;;7.93;;
59300;SDS011;45073;52.740;6.784;2022-11-20T07:35:20;16.50;;;8.43;;
59300;SDS011;45073;52.740;6.784;2022-11-20T07:37:47;16.55;;;8.30;;
59300;SDS011;45073;52.740;6.784;2022-11-20T07:40:13;17.02;;;8.43;;
59300;SDS011;45073;52.740;6.784;2022-11-20T07:42:49;16.52;;;7.85;;
59300;SDS011;45073;52.740;6.784;2022-11-20T07:45:16;17.17;;;8.50;;
59300;SDS011;45073;52.740;6.784;2022-11-20T07:47:42;15.38;;;8.07;;
59300;SDS011;45073;52.740;6.784;2022-11-20T07:50:08;18.95;;;8.63;;
59300;SDS011;45073;52.740;6.784;2022-11-20T07:52:34;17.05;;;8.07;;
59300;SDS011;45073;52.740;6.784;2022-11-20T07:54:59;14.57;;;7.70;;
59300;SDS011;45073;52.740;6.784;2022-11-20T07:57:25;16.25;;;8.15;;
59300;SDS011;45073;52.740;6.784;2022-11-20T07:59:50;14.75;;;7.47;;
59300;SDS011;45073;52.740;6.784;2022-11-20T08:02:16;14.25;;;7.53;;
59300;SDS011;45073;52.740;6.784;2022-11-20T08:04:42;14.82;;;8.77;;
59300;SDS011;45073;52.740;6.784;2022-11-20T08:07:07;14.52;;;7.95;;
59300;SDS011;45073;52.740;6.784;2022-11-20T08:09:33;14.63;;;7.75;;
59300;SDS011;45073;52.740;6.784;2022-11-20T08:11:58;19.95;;;8.15;;
59300;SDS011;45073;52.740;6.784;2022-11-20T08:14:42;16.00;;;8.50;;
59300;SDS011;45073;52.740;6.784;2022-11-20T08:17:08;15.43;;;7.45;;
59300;SDS011;45073;52.740;6.784;2022-11-20T08:19:33;14.90;;;8.50;;
59300;SDS011;45073;52.740;6.784;2022-11-20T08:21:59;14.43;;;7.80;;
59300;SDS011;45073;52.740;6.784;2022-11-20T08:24:24;15.32;;;8.23;;
59300;SDS011;45073;52.740;6.784;2022-11-20T08:26:51;16.17;;;8.30;;
59300;SDS011;45073;52.740;6.784;2022-11-20T08:29:17;16.17;;;8.27;;
59300;SDS011;45073;52.740;6.784;2022-11-20T08:31:43;16.02;;;8.13;;
59300;SDS011;45073;52.740;6.784;2022-11-20T08:34:08;14.00;;;7.25;;
59300;SDS011;45073;52.740;6.784;2022-11-20T08:36:34;15.48;;;8.32;;
59300;SDS011;45073;52.740;6.784;2022-11-20T08:39:00;14.57;;;6.40;;
59300;SDS011;45073;52.740;6.784;2022-11-20T08:41:25;18.58;;;8.70;;
59300;SDS011;45073;52.740;6.784;2022-11-20T08:43:56;18.40;;;8.80;;
59300;SDS011;45073;52.740;6.784;2022-11-20T08:46:24;16.58;;;8.50;;
59300;SDS011;45073;52.740;6.784;2022-11-20T08:48:52;15.30;;;7.97;;
59300;SDS011;45073;52.740;6.784;2022-11-20T08:51:18;15.10;;;7.78;;
59300;SDS011;45073;52.740;6.784;2022-11-20T08:53:44;13.52;;;7.18;;
59300;SDS011;45073;52.740;6.784;2022-11-20T08:56:10;16.05;;;8.30;;
59300;SDS011;45073;52.740;6.784;2022-11-20T08:58:36;17.52;;;9.50;;
59300;SDS011;45073;52.740;6.784;2022-11-20T09:01:02;17.02;;;9.65;;
59300;SDS011;45073;52.740;6.784;2022-11-20T09:03:28;16.55;;;8.57;;
59300;SDS011;45073;52.740;6.784;2022-11-20T09:05:57;15.63;;;8.55;;
59300;SDS011;45073;52.740;6.784;2022-11-20T09:08:27;17.23;;;8.05;;
59300;SDS011;45073;52.740;6.784;2022-11-20T09:10:54;15.30;;;8.23;;
59300;SDS011;45073;52.740;6.784;2022-11-20T09:13:21;16.75;;;8.43;;
59300;SDS011;45073;52.740;6.784;2022-11-20T09:15:58;17.40;;;8.25;;
59300;SDS011;45073;52.740;6.784;2022-11-20T09:18:26;16.55;;;8.40;;
59300;SDS011;45073;52.740;6.784;2022-11-20T09:20:55;19.30;;;8.45;;
59300;SDS011;45073;52.740;6.784;2022-11-20T09:23:22;17.58;;;8.52;;
59300;SDS011;45073;52.740;6.784;2022-11-20T09:25:48;18.88;;;9.45;;
59300;SDS011;45073;52.740;6.784;2022-11-20T09:28:13;16.92;;;8.85;;
59300;SDS011;45073;52.740;6.784;2022-11-20T09:30:39;15.30;;;8.25;;
59300;SDS011;45073;52.740;6.784;2022-11-20T09:33:05;16.35;;;8.02;;
59300;SDS011;45073;52.740;6.784;2022-11-20T09:35:31;16.58;;;8.13;;
59300;SDS011;45073;52.740;6.784;2022-11-20T09:37:57;15.35;;;8.27;;
59300;SDS011;45073;52.740;6.784;2022-11-20T09:40:26;18.17;;;8.25;;
59300;SDS011;45073;52.740;6.784;2022-11-20T09:48:36;17.65;;;8.70;;
59300;SDS011;45073;52.740;6.784;2022-11-20T09:51:43;17.95;;;8.90;;
59300;SDS011;45073;52.740;6.784;2022-11-20T09:54:22;17.10;;;9.63;;
59300;SDS011;45073;52.740;6.784;2022-11-20T09:57:01;17.48;;;8.65;;
59300;SDS011;45073;52.740;6.784;2022-11-20T09:59:43;14.40;;;7.45;;
59300;SDS011;45073;52.740;6.784;2022-11-20T10:02:24;16.77;;;9.02;;
59300;SDS011;45073;52.740;6.784;2022-11-20T10:04:58;16.85;;;9.45;;
59300;SDS011;45073;52.740;6.784;2022-11-20T10:07:27;16.75;;;9.57;;
59300;SDS011;45073;52.740;6.784;2022-11-20T10:10:01;20.02;;;10.65;;
59300;SDS011;45073;52.740;6.784;2022-11-20T10:15:35;17.33;;;9.80;;
59300;SDS011;45073;52.740;6.784;2022-11-20T10:21:09;15.40;;;8.27;;
59300;SDS011;45073;52.740;6.784;2022-11-20T10:29:49;15.48;;;6.95;;
59300;SDS011;45073;52.740;6.784;2022-11-20T10:32:29;15.02;;;9.10;;
59300;SDS011;45073;52.740;6.784;2022-11-20T10:35:01;14.73;;;7.70;;
59300;SDS011;45073;52.740;6.784;2022-11-20T10:37:38;16.08;;;7.75;;
59300;SDS011;45073;52.740;6.784;2022-11-20T10:42:55;14.15;;;7.28;;
59300;SDS011;45073;52.740;6.784;2022-11-20T10:47:50;13.55;;;6.70;;
59300;SDS011;45073;52.740;6.784;2022-11-20T10:50:19;13.57;;;6.28;;
59300;SDS011;45073;52.740;6.784;2022-11-20T10:56:02;11.90;;;6.55;;
59300;SDS011;45073;52.740;6.784;2022-11-20T10:59:10;13.40;;;6.13;;
59300;SDS011;45073;52.740;6.784;2022-11-20T11:01:44;11.18;;;5.90;;
59300;SDS011;45073;52.740;6.784;2022-11-20T11:04:15;11.40;;;6.28;;
59300;SDS011;45073;52.740;6.784;2022-11-20T11:07:10;11.52;;;6.68;;
59300;SDS011;45073;52.740;6.784;2022-11-20T11:09:43;12.30;;;6.05;;
59300;SDS011;45073;52.740;6.784;2022-11-20T11:12:14;12.30;;;5.47;;
59300;SDS011;45073;52.740;6.784;2022-11-20T11:14:44;12.73;;;6.30;;
59300;SDS011;45073;52.740;6.784;2022-11-20T11:17:35;12.77;;;5.68;;
59300;SDS011;45073;52.740;6.784;2022-11-20T11:20:03;12.55;;;6.18;;
59300;SDS011;45073;52.740;6.784;2022-11-20T11:22:33;11.75;;;5.75;;
59300;SDS011;45073;52.740;6.784;2022-11-20T11:25:07;11.35;;;5.22;;
59300;SDS011;45073;52.740;6.784;2022-11-20T11:27:47;12.52;;;5.63;;
59300;SDS011;45073;52.740;6.784;2022-11-20T11:30:14;12.07;;;6.55;;
59300;SDS011;45073;52.740;6.784;2022-11-20T11:32:41;12.07;;;7.03;;
59300;SDS011;45073;52.740;6.784;2022-11-20T11:35:11;12.50;;;6.55;;
59300;SDS011;45073;52.740;6.784;2022-11-20T11:37:48;12.07;;;6.47;;
59300;SDS011;45073;52.740;6.784;2022-11-20T11:40:16;12.98;;;6.15;;
59300;SDS011;45073;52.740;6.784;2022-11-20T11:42:44;12.07;;;6.32;;
59300;SDS011;45073;52.740;6.784;2022-11-20T11:45:16;12.55;;;6.28;;
59300;SDS011;45073;52.740;6.784;2022-11-20T11:52:44;13.25;;;5.65;;
59300;SDS011;45073;52.740;6.784;2022-11-20T11:55:34;13.15;;;6.55;;
59300;SDS011;45073;52.740;6.784;2022-11-20T11:58:09;20.08;;;6.70;;
59300;SDS011;45073;52.740;6.784;2022-11-20T12:00:36;11.57;;;5.93;;
59300;SDS011;45073;52.740;6.784;2022-11-20T12:03:14;13.43;;;5.97;;
59300;SDS011;45073;52.740;6.784;2022-11-20T12:05:50;12.48;;;6.90;;
59300;SDS011;45073;52.740;6.784;2022-11-20T12:08:28;13.43;;;6.53;;
59300;SDS011;45073;52.740;6.784;2022-11-20T12:13:39;11.05;;;6.47;;
59300;SDS011;45073;52.740;6.784;2022-11-20T12:16:11;11.43;;;6.65;;
59300;SDS011;45073;52.740;6.784;2022-11-20T12:18:39;11.00;;;6.57;;
59300;SDS011;45073;52.740;6.784;2022-11-20T12:21:17;12.07;;;6.90;;
59300;SDS011;45073;52.740;6.784;2022-11-20T12:26:50;10.95;;;9.10;;
59300;SDS011;45073;52.740;6.784;2022-11-20T12:35:00;12.00;;;10.13;;
59300;SDS011;45073;52.740;6.784;2022-11-20T12:37:45;12.93;;;7.82;;
59300;SDS011;45073;52.740;6.784;2022-11-20T12:43:11;12.27;;;9.93;;
59300;SDS011;45073;52.740;6.784;2022-11-20T12:46:11;12.48;;;7.72;;
59300;SDS011;45073;52.740;6.784;2022-11-20T12:48:53;13.20;;;7.15;;
59300;SDS011;45073;52.740;6.784;2022-11-20T12:51:45;11.97;;;6.77;;
59300;SDS011;45073;52.740;6.784;2022-11-20T12:54:31;11.52;;;7.45;;
59300;SDS011;45073;52.740;6.784;2022-11-20T12:57:24;13.48;;;7.53;;
59300;SDS011;45073;52.740;6.784;2022-11-20T13:00:18;12.05;;;7.28;;
59300;SDS011;45073;52.740;6.784;2022-11-20T13:08:21;12.73;;;7.00;;
59300;SDS011;45073;52.740;6.784;2022-11-20T13:10:56;13.82;;;7.25;;
59300;SDS011;45073;52.740;6.784;2022-11-20T13:18:42;12.55;;;6.88;;
59300;SDS011;45073;52.740;6.784;2022-11-20T13:21:20;14.43;;;7.68;;
59300;SDS011;45073;52.740;6.784;2022-11-20T13:23:48;12.07;;;6.82;;
59300;SDS011;45073;52.740;6.784;2022-11-20T13:26:18;11.68;;;7.28;;
59300;SDS011;45073;52.740;6.784;2022-11-20T13:31:32;13.10;;;7.45;;
59300;SDS011;45073;52.740;6.784;2022-11-20T13:33:59;16.70;;;6.63;;
59300;SDS011;45073;52.740;6.784;2022-11-20T13:36:28;13.80;;;7.47;;
59300;SDS011;45073;52.740;6.784;2022-11-20T13:38:55;13.13;;;8.27;;
59300;SDS011;45073;52.740;6.784;2022-11-20T13:41:28;13.45;;;7.70;;
59300;SDS011;45073;52.740;6.784;2022-11-20T13:43:58;15.10;;;8.93;;
59300;SDS011;45073;52.740;6.784;2022-11-20T13:46:45;16.17;;;8.18;;
59300;SDS011;45073;52.740;6.784;2022-11-20T13:49:20;13.98;;;8.07;;
59300;SDS011;45073;52.740;6.784;2022-11-20T13:51:51;14.15;;;8.45;;
59300;SDS011;45073;52.740;6.784;2022-11-20T14:00:24;16.25;;;8.95;;
59300;SDS011;45073;52.740;6.784;2022-11-20T14:05:31;18.05;;;10.45;;
59300;SDS011;45073;52.740;6.784;2022-11-20T14:08:02;15.77;;;9.85;;
59300;SDS011;45073;52.740;6.784;2022-11-20T14:10:30;15.50;;;9.38;;
59300;SDS011;45073;52.740;6.784;2022-11-20T14:12:56;15.65;;;9.38;;
59300;SDS011;45073;52.740;6.784;2022-11-20T14:15:26;17.15;;;9.82;;
59300;SDS011;45073;52.740;6.784;2022-11-20T14:17:55;15.88;;;9.38;;
59300;SDS011;45073;52.740;6.784;2022-11-20T14:20:22;16.83;;;9.65;;
59300;SDS011;45073;52.740;6.784;2022-11-20T14:22:54;14.55;;;8.77;;
59300;SDS011;45073;52.740;6.784;2022-11-20T14:25:21;18.20;;;10.20;;
59300;SDS011;45073;52.740;6.784;2022-11-20T14:27:52;16.00;;;10.00;;
59300;SDS011;45073;52.740;6.784;2022-11-20T14:30:21;17.17;;;9.18;;
59300;SDS011;45073;52.740;6.784;2022-11-20T14:32:49;15.32;;;9.05;;
59300;SDS011;45073;52.740;6.784;2022-11-20T14:35:20;15.48;;;9.50;;
59300;SDS011;45073;52.740;6.784;2022-11-20T14:37:51;17.30;;;10.55;;
59300;SDS011;45073;52.740;6.784;2022-11-20T14:40:35;19.60;;;9.98;;
59300;SDS011;45073;52.740;6.784;2022-11-20T14:43:02;17.85;;;10.45;;
59300;SDS011;45073;52.740;6.784;2022-11-20T14:45:43;18.80;;;10.18;;
59300;SDS011;45073;52.740;6.784;2022-11-20T14:48:11;16.25;;;10.52;;
59300;SDS011;45073;52.740;6.784;2022-11-20T14:50:37;16.77;;;9.80;;
59300;SDS011;45073;52.740;6.784;2022-11-20T14:53:04;17.85;;;10.90;;
59300;SDS011;45073;52.740;6.784;2022-11-20T14:58:04;17.52;;;11.18;;
59300;SDS011;45073;52.740;6.784;2022-11-20T15:00:33;16.25;;;9.20;;
59300;SDS011;45073;52.740;6.784;2022-11-20T15:02:59;18.05;;;11.25;;
59300;SDS011;45073;52.740;6.784;2022-11-20T15:05:50;21.13;;;10.80;;
59300;SDS011;45073;52.740;6.784;2022-11-20T15:08:14;17.60;;;11.02;;
59300;SDS011;45073;52.740;6.784;2022-11-20T15:10:48;17.45;;;9.98;;
59300;SDS011;45073;52.740;6.784;2022-11-20T15:13:34;17.98;;;10.82;;
59300;SDS011;45073;52.740;6.784;2022-11-20T15:16:02;21.58;;;11.45;;
59300;SDS011;45073;52.740;6.784;2022-11-20T15:18:36;17.25;;;9.82;;
59300;SDS011;45073;52.740;6.784;2022-11-20T15:21:10;19.95;;;11.82;;
59300;SDS011;45073;52.740;6.784;2022-11-20T15:23:40;17.38;;;10.55;;
59300;SDS011;45073;52.740;6.784;2022-11-20T15:26:07;15.75;;;10.32;;
59300;SDS011;45073;52.740;6.784;2022-11-20T15:28:34;18.50;;;10.30;;
59300;SDS011;45073;52.740;6.784;2022-11-20T15:31:02;18.52;;;11.35;;
59300;SDS011;45073;52.740;6.784;2022-11-20T15:33:29;16.80;;;10.60;;
59300;SDS011;45073;52.740;6.784;2022-11-20T15:35:55;18.30;;;10.80;;
59300;SDS011;45073;52.740;6.784;2022-11-20T15:38:21;18.50;;;10.02;;
59300;SDS011;45073;52.740;6.784;2022-11-20T15:40:46;17.35;;;9.40;;
59300;SDS011;45073;52.740;6.784;2022-11-20T15:43:12;17.48;;;9.48;;
59300;SDS011;45073;52.740;6.784;2022-11-20T15:45:45;17.75;;;9.98;;
59300;SDS011;45073;52.740;6.784;2022-11-20T15:48:26;17.98;;;9.63;;
59300;SDS011;45073;52.740;6.784;2022-11-20T15:50:59;17.88;;;10.75;;
59300;SDS011;45073;52.740;6.784;2022-11-20T15:53:41;18.08;;;9.95;;
59300;SDS011;45073;52.740;6.784;2022-11-20T15:56:13;18.73;;;10.75;;
59300;SDS011;45073;52.740;6.784;2022-11-20T15:58:39;18.83;;;10.48;;
59300;SDS011;45073;52.740;6.784;2022-11-20T16:01:08;20.10;;;11.30;;
59300;SDS011;45073;52.740;6.784;2022-11-20T16:03:39;20.05;;;11.45;;
59300;SDS011;45073;52.740;6.784;2022-11-20T16:06:05;18.20;;;10.57;;
59300;SDS011;45073;52.740;6.784;2022-11-20T16:08:30;18.13;;;10.75;;
59300;SDS011;45073;52.740;6.784;2022-11-20T16:10:56;18.00;;;10.55;;